Time;durP1;ratioP1;P1;durP2;ratioP2;P2;SDS_P1;SDS_P2;PMS_P1;PMS_P2;Temp;Humidity;BMP_temperature;BMP_pressure;BME280_temperature;BME280_humidity;BME280_pressure;Samples;Min_cycle;Max_cycle;Signal;HPM_P1;HPM_P2
2023/07/12 00:00:20;;;;;;;11.70;8.38;;;20.60;99.90;;;;;;5086220;28;20198;-78
2023/07/12 00:02:49;;;;;;;10.65;7.93;;;20.70;99.90;;;;;;5088075;28;20600;-79
2023/07/12 00:05:16;;;;;;;13.77;8.40;;;20.80;99.90;;;;;;5086697;28;20218;-77
2023/07/12 00:07:45;;;;;;;11.18;8.02;;;20.90;99.90;;;;;;5090678;28;20201;-78
2023/07/12 00:10:16;;;;;;;11.57;7.75;;;21.10;99.90;;;;;;5094694;28;20202;-77
2023/07/12 00:12:42;;;;;;;12.55;8.15;;;21.20;99.90;;;;;;5095038;28;20229;-80
2023/07/12 00:15:11;;;;;;;11.70;8.48;;;21.20;99.90;;;;;;5093212;28;20197;-79
2023/07/12 00:17:38;;;;;;;14.82;8.38;;;21.20;99.90;;;;;;5088446;28;20212;-81
2023/07/12 00:20:23;;;;;;;12.68;8.65;;;21.00;99.90;;;;;;5088477;28;20658;-78
2023/07/12 00:22:51;;;;;;;13.23;8.65;;;20.90;99.90;;;;;;5089650;28;20307;-80
2023/07/12 00:25:20;;;;;;;12.05;8.38;;;20.80;99.90;;;;;;5086219;28;20263;-80
2023/07/12 00:27:47;;;;;;;15.60;9.00;;;20.60;99.90;;;;;;5089844;28;20281;-80
2023/07/12 00:30:17;;;;;;;10.45;7.93;;;20.70;99.90;;;;;;5085322;28;20201;-80
2023/07/12 00:32:44;;;;;;;12.02;7.93;;;20.80;99.90;;;;;;5087164;28;20626;-78
2023/07/12 00:35:16;;;;;;;11.65;7.75;;;20.80;99.90;;;;;;5086546;28;20196;-78
2023/07/12 00:37:44;;;;;;;15.25;8.77;;;21.00;99.90;;;;;;5082927;28;20198;-80
2023/07/12 00:40:22;;;;;;;10.85;7.75;;;21.10;99.90;;;;;;5091564;28;20202;-77
2023/07/12 00:42:57;;;;;;;11.15;8.00;;;21.10;99.90;;;;;;5086199;28;20221;-80
2023/07/12 00:45:24;;;;;;;10.25;7.72;;;21.20;99.90;;;;;;5086990;28;20685;-77
2023/07/12 00:47:51;;;;;;;14.02;8.40;;;21.10;99.90;;;;;;5087855;28;20194;-80
2023/07/12 00:50:20;;;;;;;10.90;7.70;;;21.20;99.90;;;;;;5086784;28;20197;-80
2023/07/12 00:52:47;;;;;;;10.98;7.68;;;21.30;99.90;;;;;;5086766;28;20304;-79
2023/07/12 00:55:50;;;;;;;10.38;7.38;;;21.40;99.90;;;;;;5088424;28;20217;-77
2023/07/12 00:58:17;;;;;;;11.75;7.70;;;21.50;99.90;;;;;;5083854;28;20212;-80
2023/07/12 01:00:44;;;;;;;12.32;7.50;;;21.60;99.90;;;;;;5086852;28;20208;-79
2023/07/12 01:03:12;;;;;;;12.80;7.43;;;21.70;99.90;;;;;;5086354;28;20217;-80
2023/07/12 01:05:42;;;;;;;10.60;8.13;;;21.90;99.90;;;;;;5086836;28;20221;-80
2023/07/12 01:08:11;;;;;;;10.85;8.10;;;21.90;99.90;;;;;;5095127;28;20198;-78
2023/07/12 01:10:38;;;;;;;10.85;7.65;;;21.90;99.90;;;;;;5086251;28;20201;-79
2023/07/12 01:13:05;;;;;;;13.38;7.97;;;21.80;99.90;;;;;;5086494;28;20213;-80
2023/07/12 01:15:33;;;;;;;11.75;8.50;;;21.80;99.90;;;;;;5078741;28;20237;-80
2023/07/12 01:18:00;;;;;;;11.15;7.05;;;21.60;99.90;;;;;;5084376;28;20549;-77
2023/07/12 01:20:28;;;;;;;11.90;6.78;;;22.00;99.90;;;;;;5082511;28;20199;-78
2023/07/12 01:22:56;;;;;;;10.88;6.90;;;22.50;99.90;;;;;;5087875;28;20224;-79
2023/07/12 01:25:33;;;;;;;10.43;6.68;;;22.70;99.90;;;;;;5085477;28;20222;-78
2023/07/12 01:28:00;;;;;;;9.77;6.82;;;22.80;99.90;;;;;;5085857;28;20197;-80
2023/07/12 01:30:28;;;;;;;10.93;6.43;;;23.00;99.90;;;;;;5078959;28;20680;-80
2023/07/12 01:32:55;;;;;;;10.00;6.43;;;23.20;99.90;;;;;;5094866;28;20262;-80
2023/07/12 01:35:22;;;;;;;8.77;6.20;;;23.20;99.90;;;;;;5078637;28;20198;-78
2023/07/12 01:37:48;;;;;;;9.52;5.65;;;23.40;99.90;;;;;;5086377;28;20201;-79
2023/07/12 01:40:17;;;;;;;10.60;6.32;;;23.50;99.90;;;;;;5080237;28;20202;-80
2023/07/12 01:42:44;;;;;;;10.02;5.95;;;23.50;99.90;;;;;;5080775;28;20222;-80
2023/07/12 01:45:11;;;;;;;10.43;5.78;;;23.60;99.90;;;;;;5085223;28;20686;-79
2023/07/12 01:47:38;;;;;;;6.95;5.55;;;23.90;99.90;;;;;;5082341;28;20212;-78
2023/07/12 01:50:06;;;;;;;7.55;5.43;;;23.90;99.90;;;;;;5084619;28;20201;-80
2023/07/12 01:52:33;;;;;;;8.50;5.43;;;24.00;99.90;;;;;;5084269;28;20231;-79
2023/07/12 01:54:59;;;;;;;9.98;5.72;;;24.00;99.90;;;;;;5087197;28;20198;-79
2023/07/12 01:57:27;;;;;;;8.52;6.35;;;24.10;99.90;;;;;;5091249;28;20201;-80
2023/07/12 01:59:54;;;;;;;7.35;5.60;;;24.00;99.90;;;;;;5093503;28;20646;-79
2023/07/12 02:02:21;;;;;;;8.13;6.18;;;24.10;99.90;;;;;;5093768;28;20221;-78
2023/07/12 02:04:48;;;;;;;10.60;6.88;;;23.80;99.90;;;;;;5080899;28;20280;-80
2023/07/12 02:07:14;;;;;;;11.52;6.38;;;23.30;99.90;;;;;;5085085;28;20193;-79
2023/07/12 02:10:02;;;;;;;9.35;5.95;;;22.40;99.90;;;;;;5090593;28;20208;-76
2023/07/12 02:12:30;;;;;;;8.65;6.25;;;22.00;99.90;;;;;;5089474;28;20244;-78
2023/07/12 02:14:57;;;;;;;10.43;6.32;;;21.60;99.90;;;;;;5087352;28;20213;-78
2023/07/12 02:17:24;;;;;;;8.70;6.00;;;21.30;99.90;;;;;;5084778;28;20204;-78
2023/07/12 02:19:51;;;;;;;11.38;6.22;;;21.00;99.90;;;;;;5086742;28;20201;-78
2023/07/12 02:22:17;;;;;;;10.70;5.97;;;20.70;99.90;;;;;;5094163;28;20228;-78
2023/07/12 02:24:44;;;;;;;9.25;6.28;;;20.60;99.90;;;;;;5092713;28;20208;-78
2023/07/12 02:27:11;;;;;;;11.77;6.40;;;20.40;99.90;;;;;;5089429;28;20202;-79
2023/07/12 02:29:39;;;;;;;10.15;6.43;;;20.50;99.90;;;;;;5077947;28;20220;-77
2023/07/12 02:32:06;;;;;;;10.18;6.45;;;20.50;99.90;;;;;;5081598;28;20690;-78
2023/07/12 02:34:33;;;;;;;9.38;6.72;;;20.40;99.90;;;;;;5093538;28;20671;-79
2023/07/12 02:37:00;;;;;;;11.05;6.32;;;20.20;99.90;;;;;;5086298;28;20556;-78
2023/07/12 02:39:27;;;;;;;8.93;6.25;;;20.10;99.90;;;;;;5089559;28;20582;-79
2023/07/12 02:41:54;;;;;;;11.93;6.63;;;20.00;99.90;;;;;;5080129;28;20221;-79
2023/07/12 02:44:21;;;;;;;9.80;6.43;;;20.00;99.90;;;;;;5077459;28;20233;-78
2023/07/12 02:46:49;;;;;;;10.55;6.22;;;19.80;99.90;;;;;;5076677;28;20326;-79
2023/07/12 02:49:16;;;;;;;9.13;6.90;;;19.80;99.90;;;;;;5086249;28;20195;-79
2023/07/12 02:51:43;;;;;;;10.65;6.45;;;19.90;99.90;;;;;;5084870;28;20666;-78
2023/07/12 02:54:10;;;;;;;11.55;6.57;;;19.90;99.90;;;;;;5094645;28;20197;-79
2023/07/12 02:56:37;;;;;;;8.38;5.88;;;19.80;99.90;;;;;;5076621;28;20209;-78
2023/07/12 02:59:03;;;;;;;11.52;7.00;;;19.70;99.90;;;;;;5085934;28;20204;-78
2023/07/12 03:01:30;;;;;;;8.48;6.03;;;19.70;99.90;;;;;;5086066;28;20217;-79
2023/07/12 03:03:59;;;;;;;9.02;5.63;;;19.60;99.90;;;;;;5086224;28;20197;-77
2023/07/12 03:06:26;;;;;;;6.88;5.68;;;19.70;99.90;;;;;;5088366;28;20218;-77
2023/07/12 03:08:52;;;;;;;9.18;6.70;;;19.80;99.90;;;;;;5088660;28;20198;-78
2023/07/12 03:11:19;;;;;;;10.00;5.80;;;19.70;99.90;;;;;;5082671;28;20206;-76
2023/07/12 03:13:46;;;;;;;8.38;5.57;;;19.70;99.90;;;;;;5088622;28;20206;-80
2023/07/12 03:16:13;;;;;;;10.63;5.75;;;19.70;99.90;;;;;;5089062;28;20206;-79
2023/07/12 03:18:40;;;;;;;11.45;6.93;;;19.70;99.90;;;;;;5094490;28;20228;-77
2023/07/12 03:21:08;;;;;;;11.02;6.65;;;19.70;99.90;;;;;;5083319;28;20202;-79
2023/07/12 03:23:35;;;;;;;8.13;6.07;;;19.60;99.90;;;;;;5097494;28;20205;-78
2023/07/12 03:26:02;;;;;;;8.70;6.15;;;19.40;99.90;;;;;;5088446;28;20223;-78
2023/07/12 03:28:29;;;;;;;7.40;6.10;;;19.40;99.90;;;;;;5089004;28;20203;-79
2023/07/12 03:31:00;;;;;;;8.25;6.15;;;19.40;99.90;;;;;;5090098;28;20202;-79
2023/07/12 03:33:27;;;;;;;10.50;6.00;;;19.40;99.90;;;;;;5087329;28;20198;-80
2023/07/12 03:35:54;;;;;;;10.30;5.65;;;19.40;99.90;;;;;;5088126;28;20194;-79
2023/07/12 03:38:25;;;;;;;11.48;5.70;;;19.30;99.90;;;;;;5089088;28;20542;-80
2023/07/12 03:40:56;;;;;;;10.23;5.43;;;19.20;99.90;;;;;;5089084;28;20646;-81
2023/07/12 03:43:23;;;;;;;9.52;5.57;;;19.10;99.90;;;;;;5090459;28;20224;-79
2023/07/12 03:45:49;;;;;;;7.57;5.68;;;19.10;99.90;;;;;;5093649;28;20614;-80
2023/07/12 03:48:16;;;;;;;9.52;4.90;;;19.20;99.90;;;;;;5092559;28;20572;-78
2023/07/12 03:50:44;;;;;;;7.57;5.13;;;19.30;99.90;;;;;;5086879;28;20212;-80
2023/07/12 03:53:11;;;;;;;8.60;4.80;;;19.20;99.90;;;;;;5090918;28;20224;-79
2023/07/12 03:55:42;;;;;;;7.88;5.18;;;19.40;99.90;;;;;;5087779;28;20206;-79
2023/07/12 03:58:10;;;;;;;5.28;4.78;;;19.50;99.90;;;;;;5091193;28;20209;-80
2023/07/12 04:00:40;;;;;;;5.85;4.30;;;19.40;99.90;;;;;;5094113;28;20696;-79
2023/07/12 04:03:07;;;;;;;7.57;4.53;;;19.40;99.90;;;;;;5089790;28;20610;-81
2023/07/12 04:05:37;;;;;;;8.40;4.70;;;19.40;99.90;;;;;;5095730;28;20235;-80
2023/07/12 04:08:04;;;;;;;7.38;4.15;;;19.50;99.90;;;;;;5092873;28;20218;-81
2023/07/12 04:10:32;;;;;;;9.45;4.68;;;19.50;99.90;;;;;;5093542;28;20209;-79
2023/07/12 04:13:00;;;;;;;5.88;4.03;;;19.30;99.90;;;;;;5092643;28;20602;-81
2023/07/12 04:15:27;;;;;;;5.90;4.07;;;19.30;99.90;;;;;;5092485;28;20204;-81
2023/07/12 04:17:54;;;;;;;5.85;3.65;;;19.50;99.90;;;;;;5088173;28;20197;-79
2023/07/12 04:20:21;;;;;;;6.20;3.88;;;19.30;99.90;;;;;;5088872;28;20224;-79
2023/07/12 04:22:50;;;;;;;7.05;4.22;;;19.20;99.90;;;;;;5086585;28;20224;-79
2023/07/12 04:25:17;;;;;;;4.55;3.30;;;19.40;99.90;;;;;;5085385;28;20198;-78
2023/07/12 04:27:45;;;;;;;6.28;3.20;;;19.40;99.90;;;;;;5094623;28;20717;-80
2023/07/12 04:30:15;;;;;;;4.15;3.25;;;19.60;99.90;;;;;;5091587;28;20205;-81
2023/07/12 04:32:43;;;;;;;4.28;3.30;;;19.50;99.90;;;;;;5094300;28;20236;-80
2023/07/12 04:35:10;;;;;;;5.07;3.47;;;19.70;99.90;;;;;;5087033;28;20219;-80
2023/07/12 04:37:37;;;;;;;4.00;3.22;;;19.60;99.90;;;;;;5086065;28;20575;-80
2023/07/12 04:40:05;;;;;;;5.88;2.80;;;19.60;99.90;;;;;;5083492;28;20198;-81
2023/07/12 04:42:31;;;;;;;5.15;2.90;;;19.70;99.90;;;;;;5084544;28;20698;-80
2023/07/12 04:44:58;;;;;;;5.15;2.63;;;19.70;99.90;;;;;;5087665;28;20194;-80
2023/07/12 04:47:26;;;;;;;4.57;3.40;;;19.70;99.90;;;;;;5087651;28;20221;-80
2023/07/12 04:49:53;;;;;;;4.72;3.20;;;19.80;99.90;;;;;;5085305;28;20258;-79
2023/07/12 04:52:20;;;;;;;4.53;3.58;;;19.70;99.90;;;;;;5090052;28;20220;-80
2023/07/12 04:54:47;;;;;;;4.97;3.17;;;19.80;99.90;;;;;;5085481;28;20289;-80
2023/07/12 04:57:13;;;;;;;5.68;3.80;;;19.80;99.90;;;;;;5086743;28;20202;-80
2023/07/12 04:59:40;;;;;;;4.32;3.60;;;19.70;99.90;;;;;;5081251;28;20210;-79
2023/07/12 05:02:07;;;;;;;5.57;3.20;;;19.80;99.90;;;;;;5090330;28;20225;-80
2023/07/12 05:04:35;;;;;;;5.63;3.50;;;19.90;99.90;;;;;;5091708;28;20210;-80
2023/07/12 05:07:03;;;;;;;6.22;3.28;;;19.90;99.90;;;;;;5087809;28;20245;-79
2023/07/12 05:09:30;;;;;;;5.13;3.00;;;19.90;99.90;;;;;;5081884;28;20296;-79
2023/07/12 05:11:57;;;;;;;3.15;2.70;;;19.90;99.90;;;;;;5083412;28;20256;-79
2023/07/12 05:14:23;;;;;;;4.15;2.67;;;19.90;99.90;;;;;;5090391;28;20293;-80
2023/07/12 05:16:50;;;;;;;5.90;2.60;;;19.90;99.90;;;;;;5087221;28;20198;-78
2023/07/12 05:19:17;;;;;;;4.43;2.40;;;20.00;99.90;;;;;;5090577;28;20218;-80
2023/07/12 05:21:46;;;;;;;2.60;2.40;;;20.00;99.90;;;;;;5092070;28;20728;-79
2023/07/12 05:24:12;;;;;;;2.78;1.85;;;20.00;99.90;;;;;;5088939;28;20202;-80
2023/07/12 05:26:39;;;;;;;3.00;2.17;;;20.10;99.90;;;;;;5086146;28;20224;-80
2023/07/12 05:29:06;;;;;;;1.85;1.70;;;20.00;99.90;;;;;;5086893;28;20243;-80
2023/07/12 05:31:33;;;;;;;1.92;1.55;;;20.10;99.90;;;;;;5087419;28;20230;-80
2023/07/12 05:34:01;;;;;;;3.00;1.42;;;20.20;99.90;;;;;;5092046;28;20573;-80
2023/07/12 05:36:27;;;;;;;4.43;2.17;;;20.20;99.90;;;;;;5085576;28;20205;-81
2023/07/12 05:38:56;;;;;;;1.63;1.45;;;20.20;99.90;;;;;;5092101;28;20212;-81
2023/07/12 05:41:23;;;;;;;2.08;1.65;;;20.20;99.90;;;;;;5093981;28;20225;-81
2023/07/12 05:43:49;;;;;;;2.65;1.48;;;20.30;99.90;;;;;;5085701;28;20684;-80
2023/07/12 05:46:16;;;;;;;1.85;1.75;;;20.40;99.90;;;;;;5085785;28;20224;-80
2023/07/12 05:48:43;;;;;;;3.85;1.70;;;20.70;99.90;;;;;;5077317;28;20230;-80
2023/07/12 05:51:10;;;;;;;1.65;1.55;;;20.70;99.90;;;;;;5085442;28;20200;-80
2023/07/12 05:53:36;;;;;;;4.25;1.58;;;20.60;99.90;;;;;;5085655;28;20220;-80
2023/07/12 05:56:05;;;;;;;1.90;1.58;;;20.40;99.90;;;;;;5077013;28;20209;-80
2023/07/12 05:58:34;;;;;;;2.15;1.65;;;20.40;99.90;;;;;;5094090;28;20687;-81
2023/07/12 06:01:02;;;;;;;3.00;1.73;;;20.60;99.90;;;;;;5082497;28;20273;-78
2023/07/12 06:03:31;;;;;;;1.42;1.33;;;20.50;99.90;;;;;;5089202;28;20236;-80
2023/07/12 06:05:58;;;;;;;2.20;1.42;;;20.40;99.90;;;;;;5082836;28;20206;-78
2023/07/12 06:08:27;;;;;;;1.63;1.30;;;20.60;99.90;;;;;;5082014;28;20210;-82
2023/07/12 06:10:54;;;;;;;1.60;1.50;;;20.60;99.90;;;;;;5084249;28;20214;-80
2023/07/12 06:13:23;;;;;;;1.77;1.15;;;20.70;99.90;;;;;;5087941;28;20224;-80
2023/07/12 06:15:50;;;;;;;1.50;1.40;;;20.70;99.90;;;;;;5090239;28;20205;-82
2023/07/12 06:18:16;;;;;;;2.75;1.27;;;20.80;99.90;;;;;;5084495;28;20190;-80
2023/07/12 06:20:43;;;;;;;3.17;1.63;;;21.00;99.90;;;;;;5088677;28;20672;-81
2023/07/12 06:23:10;;;;;;;1.30;1.20;;;21.00;99.90;;;;;;5084666;28;20670;-81
2023/07/12 06:25:37;;;;;;;1.60;1.50;;;21.00;99.90;;;;;;5093070;28;20206;-79
2023/07/12 06:28:04;;;;;;;2.50;1.55;;;21.00;99.90;;;;;;5082561;28;20303;-80
2023/07/12 06:30:32;;;;;;;3.83;1.50;;;20.80;99.90;;;;;;5089109;28;20209;-79
2023/07/12 06:32:59;;;;;;;1.90;1.42;;;20.70;99.90;;;;;;5083738;28;20225;-80
2023/07/12 06:35:26;;;;;;;3.35;1.42;;;21.00;99.90;;;;;;5080495;28;20634;-79
2023/07/12 06:37:53;;;;;;;2.47;1.25;;;21.10;99.90;;;;;;5081541;28;20679;-80
2023/07/12 06:40:19;;;;;;;1.40;1.30;;;20.90;99.90;;;;;;5078044;28;20671;-79
2023/07/12 06:42:46;;;;;;;2.17;1.40;;;21.00;99.90;;;;;;5089444;28;20233;-78
2023/07/12 06:45:13;;;;;;;1.85;1.42;;;20.80;99.90;;;;;;5089579;28;20202;-79
2023/07/12 06:47:41;;;;;;;1.42;1.30;;;20.80;99.90;;;;;;5088868;28;20224;-79
2023/07/12 06:50:09;;;;;;;3.08;1.42;;;20.90;99.90;;;;;;5086629;28;20206;-80
2023/07/12 06:52:36;;;;;;;1.20;1.10;;;21.00;99.90;;;;;;5086806;28;20230;-79
2023/07/12 06:55:03;;;;;;;1.77;1.10;;;21.00;99.90;;;;;;5085144;28;20206;-79
2023/07/12 06:57:30;;;;;;;1.30;1.20;;;21.10;99.90;;;;;;5085142;28;20657;-79
2023/07/12 06:59:57;;;;;;;2.28;1.23;;;21.30;99.90;;;;;;5083779;28;20212;-79
2023/07/12 07:02:23;;;;;;;1.75;0.90;;;21.30;99.90;;;;;;5081297;28;20233;-79
2023/07/12 07:04:52;;;;;;;1.35;0.93;;;21.30;99.90;;;;;;5089762;28;20205;-80
2023/07/12 07:07:18;;;;;;;3.08;1.23;;;21.30;99.90;;;;;;5077558;28;20661;-79
2023/07/12 07:09:45;;;;;;;0.77;0.73;;;21.30;99.90;;;;;;5088985;28;20690;-80
2023/07/12 07:12:12;;;;;;;1.00;0.90;;;21.30;99.90;;;;;;5084326;28;20221;-79
2023/07/12 07:14:40;;;;;;;2.38;1.05;;;21.30;99.90;;;;;;5084771;28;20201;-80
2023/07/12 07:17:08;;;;;;;2.83;1.00;;;21.30;99.90;;;;;;5084627;28;20194;-78
2023/07/12 07:19:35;;;;;;;1.33;0.73;;;21.60;99.90;;;;;;5093788;28;20201;-80
2023/07/12 07:22:03;;;;;;;2.13;1.15;;;21.40;99.90;;;;;;5081528;28;20233;-78
2023/07/12 07:24:30;;;;;;;1.25;1.08;;;21.50;99.90;;;;;;5085360;28;20206;-80
2023/07/12 07:26:57;;;;;;;2.15;0.93;;;21.60;99.90;;;;;;5091861;28;20218;-78
2023/07/12 07:29:24;;;;;;;2.17;1.10;;;21.60;99.90;;;;;;5073381;28;20202;-78
2023/07/12 07:31:50;;;;;;;1.35;1.10;;;21.50;99.90;;;;;;5080879;28;20222;-81
2023/07/12 07:34:17;;;;;;;1.40;1.00;;;21.40;99.90;;;;;;5090037;28;20573;-80
2023/07/12 07:36:44;;;;;;;1.40;1.08;;;21.80;99.90;;;;;;5088856;28;20574;-79
2023/07/12 07:39:12;;;;;;;0.70;0.70;;;21.80;99.90;;;;;;5087797;28;20582;-79
2023/07/12 07:41:39;;;;;;;2.75;0.90;;;21.70;99.90;;;;;;5081440;28;20246;-80
2023/07/12 07:44:06;;;;;;;1.10;0.63;;;21.60;99.90;;;;;;5092698;28;20288;-79
2023/07/12 07:46:33;;;;;;;1.33;1.05;;;21.60;99.90;;;;;;5088553;28;20210;-79
2023/07/12 07:49:00;;;;;;;0.70;0.70;;;21.70;99.90;;;;;;5092125;28;20201;-79
2023/07/12 07:51:27;;;;;;;0.63;0.63;;;21.70;99.90;;;;;;5089472;28;20225;-81
2023/07/12 07:53:54;;;;;;;1.30;0.80;;;21.80;99.90;;;;;;5093683;28;20208;-79
2023/07/12 07:56:22;;;;;;;1.23;0.90;;;21.80;99.90;;;;;;5092754;28;20198;-80
2023/07/12 07:58:49;;;;;;;1.30;1.10;;;21.70;99.90;;;;;;5093253;28;20205;-80
2023/07/12 08:01:16;;;;;;;1.05;0.80;;;21.70;99.90;;;;;;5093553;28;20203;-80
2023/07/12 08:03:43;;;;;;;1.30;0.85;;;21.80;99.90;;;;;;5091955;28;20673;-79
2023/07/12 08:06:10;;;;;;;1.52;0.82;;;21.80;99.90;;;;;;5086452;28;20661;-80
2023/07/12 08:08:37;;;;;;;2.20;0.73;;;21.90;99.90;;;;;;5084448;28;20690;-80
2023/07/12 08:11:06;;;;;;;2.17;0.80;;;22.00;99.90;;;;;;5084424;28;20649;-79
2023/07/12 08:13:34;;;;;;;1.50;0.70;;;22.00;99.90;;;;;;5084412;28;20225;-80
2023/07/12 08:16:01;;;;;;;1.33;0.93;;;22.00;99.90;;;;;;5085537;28;20209;-78
2023/07/12 08:18:28;;;;;;;1.02;0.70;;;22.00;99.90;;;;;;5084716;28;20198;-77
2023/07/12 08:20:55;;;;;;;3.17;0.98;;;22.10;99.90;;;;;;5084062;28;20213;-77
2023/07/12 08:23:22;;;;;;;2.70;0.90;;;22.00;99.90;;;;;;5084265;28;20715;-79
2023/07/12 08:25:49;;;;;;;2.38;1.10;;;22.10;99.90;;;;;;5090661;28;20205;-78
2023/07/12 08:28:16;;;;;;;1.30;0.90;;;22.10;99.90;;;;;;5087151;28;20228;-78
2023/07/12 08:30:44;;;;;;;1.52;1.10;;;22.10;99.90;;;;;;5087150;28;20575;-79
2023/07/12 08:33:11;;;;;;;2.17;1.33;;;21.90;99.90;;;;;;5085443;28;20246;-80
2023/07/12 08:35:38;;;;;;;1.48;1.38;;;21.80;99.90;;;;;;5089662;28;20212;-80
2023/07/12 08:38:05;;;;;;;1.75;1.48;;;21.80;99.90;;;;;;5095491;28;20203;-80
2023/07/12 08:40:32;;;;;;;1.55;1.45;;;21.80;99.90;;;;;;5081789;28;20588;-77
2023/07/12 08:43:00;;;;;;;1.73;1.27;;;21.90;99.90;;;;;;5092039;28;20221;-80
2023/07/12 08:45:29;;;;;;;3.10;1.77;;;22.20;99.90;;;;;;5087212;28;20197;-80
2023/07/12 08:48:00;;;;;;;3.05;1.75;;;22.40;99.90;;;;;;5095277;28;20248;-79
2023/07/12 08:50:32;;;;;;;2.63;1.90;;;22.30;99.90;;;;;;5083759;28;20213;-78
2023/07/12 08:52:59;;;;;;;2.28;2.08;;;22.20;99.90;;;;;;5082743;28;20600;-79
2023/07/12 08:55:28;;;;;;;2.25;1.90;;;22.50;99.90;;;;;;5091007;28;20209;-77
2023/07/12 08:57:58;;;;;;;1.90;1.65;;;23.10;99.90;;;;;;5090593;28;20205;-78
2023/07/12 09:00:28;;;;;;;8.93;2.50;;;22.90;99.90;;;;;;5081078;28;20289;-79
2023/07/12 09:02:56;;;;;;;2.22;1.98;;;22.50;99.90;;;;;;5090454;28;20313;-78
2023/07/12 09:05:25;;;;;;;1.90;1.80;;;22.50;99.90;;;;;;5086034;28;20209;-79
2023/07/12 09:07:56;;;;;;;2.40;2.20;;;22.40;99.90;;;;;;5086246;28;20222;-78
2023/07/12 09:10:34;;;;;;;3.13;2.30;;;22.20;99.90;;;;;;5091857;28;20210;-80
2023/07/12 09:13:02;;;;;;;4.03;2.70;;;22.30;99.90;;;;;;5090204;28;20236;-78
2023/07/12 09:15:35;;;;;;;2.63;2.40;;;22.20;99.90;;;;;;5076149;28;20206;-78
2023/07/12 09:18:07;;;;;;;3.28;2.58;;;22.30;99.90;;;;;;5093746;28;20208;-77
2023/07/12 09:20:38;;;;;;;2.97;2.67;;;22.10;99.90;;;;;;5082016;28;20271;-78
2023/07/12 09:23:07;;;;;;;3.15;2.85;;;22.00;99.90;;;;;;5093366;28;20231;-80
2023/07/12 09:25:37;;;;;;;2.90;2.60;;;22.00;99.90;;;;;;5086610;28;20607;-79
2023/07/12 09:28:04;;;;;;;3.55;2.83;;;22.40;99.90;;;;;;5086866;28;20730;-79
2023/07/12 09:30:33;;;;;;;2.63;2.42;;;22.40;99.90;;;;;;5090675;28;20206;-80
2023/07/12 09:33:05;;;;;;;2.60;2.40;;;22.40;99.90;;;;;;5092028;28;20218;-79
2023/07/12 09:35:38;;;;;;;2.70;2.50;;;22.10;99.90;;;;;;5083218;28;20263;-78
2023/07/12 09:38:11;;;;;;;2.47;2.28;;;22.30;99.90;;;;;;5091593;28;20202;-78
2023/07/12 09:40:41;;;;;;;2.53;2.33;;;22.30;99.90;;;;;;5088234;28;20216;-77
2023/07/12 09:43:16;;;;;;;2.50;2.30;;;22.00;99.90;;;;;;5085237;28;20613;-76
2023/07/12 09:45:48;;;;;;;3.60;2.72;;;22.10;99.90;;;;;;5087997;28;20212;-78
2023/07/12 09:48:27;;;;;;;3.45;2.75;;;22.50;99.90;;;;;;5086169;28;20221;-80
2023/07/12 09:51:07;;;;;;;3.05;2.80;;;22.60;99.90;;;;;;5086606;28;20206;-80
2023/07/12 09:53:42;;;;;;;3.03;2.75;;;22.40;99.90;;;;;;5087445;28;20208;-79
2023/07/12 09:56:21;;;;;;;3.50;3.20;;;22.60;99.90;;;;;;5085378;28;20681;-78
2023/07/12 09:58:55;;;;;;;4.10;3.17;;;22.30;99.90;;;;;;5086107;28;20629;-79
2023/07/12 10:01:32;;;;;;;3.40;3.10;;;22.50;99.90;;;;;;5083868;28;20221;-80
2023/07/12 10:04:07;;;;;;;3.72;3.42;;;22.50;99.90;;;;;;5090827;28;20205;-78
2023/07/12 10:06:40;;;;;;;3.83;3.22;;;22.50;99.90;;;;;;5085772;28;20213;-78
2023/07/12 10:09:12;;;;;;;4.28;2.80;;;22.50;99.90;;;;;;5093587;28;20297;-78
2023/07/12 10:11:45;;;;;;;4.32;3.33;;;22.70;99.90;;;;;;5081985;28;20755;-78
2023/07/12 10:14:15;;;;;;;3.80;3.40;;;22.50;99.90;;;;;;5082301;28;20210;-77
2023/07/12 10:16:47;;;;;;;4.00;3.22;;;22.20;99.90;;;;;;5084963;28;20551;-80
2023/07/12 10:19:22;;;;;;;3.45;3.15;;;22.60;99.90;;;;;;5085149;28;20227;-78
2023/07/12 10:21:51;;;;;;;4.43;3.40;;;22.80;99.90;;;;;;5079709;28;20226;-80
2023/07/12 10:24:21;;;;;;;3.88;3.00;;;23.20;99.90;;;;;;5092333;28;20197;-78
2023/07/12 10:26:49;;;;;;;2.78;2.58;;;23.10;99.90;;;;;;5085085;28;20209;-79
2023/07/12 10:29:21;;;;;;;2.50;2.30;;;23.20;99.90;;;;;;5083986;28;20259;-80
2023/07/12 10:31:52;;;;;;;2.75;2.55;;;23.00;99.90;;;;;;5088223;28;20240;-78
2023/07/12 10:34:28;;;;;;;3.10;2.90;;;22.60;99.90;;;;;;5083837;28;20765;-80
2023/07/12 10:36:56;;;;;;;3.05;2.25;;;22.90;99.90;;;;;;5089102;28;20206;-80
2023/07/12 10:39:25;;;;;;;3.00;2.70;;;23.40;99.90;;;;;;5084913;28;20194;-80
2023/07/12 10:41:56;;;;;;;2.72;2.50;;;23.60;99.90;;;;;;5087350;28;20226;-80
2023/07/12 10:44:27;;;;;;;2.83;2.40;;;24.40;99.90;;;;;;5083433;28;20621;-80
2023/07/12 10:46:57;;;;;;;3.80;2.67;;;24.70;99.90;;;;;;5084477;28;20211;-81
2023/07/12 10:49:42;;;;;;;2.67;2.47;;;24.70;99.90;;;;;;5081855;28;20224;-79
2023/07/12 10:52:19;;;;;;;3.60;2.70;;;24.70;99.90;;;;;;5081164;28;20226;-78
2023/07/12 10:55:04;;;;;;;3.20;2.40;;;24.50;99.90;;;;;;5085683;28;20223;-80
2023/07/12 10:57:39;;;;;;;4.65;2.50;;;24.30;99.90;;;;;;5080525;28;20212;-79
2023/07/12 11:00:26;;;;;;;2.70;2.50;;;23.90;99.90;;;;;;5088415;28;20209;-79
2023/07/12 11:03:18;;;;;;;2.45;2.35;;;24.20;99.90;;;;;;5079682;28;20240;-80
2023/07/12 11:05:57;;;;;;;3.00;2.70;;;23.90;99.90;;;;;;5086015;28;20208;-81
2023/07/12 11:08:45;;;;;;;3.35;2.50;;;23.80;99.90;;;;;;5092962;28;20221;-80
2023/07/12 11:11:36;;;;;;;3.00;2.80;;;23.80;99.90;;;;;;5093093;28;20205;-78
2023/07/12 11:14:19;;;;;;;3.30;2.60;;;24.40;99.90;;;;;;5082352;28;20203;-78
2023/07/12 11:16:51;;;;;;;3.63;2.83;;;24.30;99.90;;;;;;5081508;28;20206;-79
2023/07/12 11:19:35;;;;;;;4.43;2.65;;;24.60;99.90;;;;;;5083111;28;20282;-80
2023/07/12 11:22:12;;;;;;;3.70;2.88;;;25.50;99.90;;;;;;5093770;28;20221;-77
2023/07/12 11:24:41;;;;;;;2.83;2.60;;;25.50;99.90;;;;;;5081998;28;20226;-81
2023/07/12 11:27:25;;;;;;;4.53;2.97;;;25.40;99.90;;;;;;5082690;28;20201;-80
2023/07/12 11:29:54;;;;;;;3.10;2.85;;;25.40;99.90;;;;;;5090729;28;20770;-79
2023/07/12 11:32:25;;;;;;;4.68;3.00;;;25.50;99.90;;;;;;5088908;28;20225;-80
2023/07/12 11:35:00;;;;;;;3.75;2.95;;;24.60;99.90;;;;;;5084319;28;20649;-80
2023/07/12 11:37:37;;;;;;;5.15;2.92;;;24.40;99.90;;;;;;5087659;28;20642;-80
2023/07/12 11:40:20;;;;;;;4.85;3.08;;;24.20;99.90;;;;;;5089359;28;20266;-80
2023/07/12 11:42:47;;;;;;;2.90;2.70;;;24.40;99.90;;;;;;5085369;28;20701;-80
2023/07/12 11:45:17;;;;;;;3.83;2.55;;;24.60;99.90;;;;;;5094235;28;20586;-79
2023/07/12 11:47:45;;;;;;;3.42;2.83;;;25.00;99.90;;;;;;5088499;28;20228;-80
2023/07/12 11:50:19;;;;;;;3.78;2.45;;;25.70;99.90;;;;;;5083870;28;20293;-81
2023/07/12 11:52:48;;;;;;;3.25;2.78;;;25.90;99.90;;;;;;5089071;28;20569;-81
2023/07/12 11:55:17;;;;;;;2.40;2.20;;;25.60;99.90;;;;;;5088604;28;20286;-80
2023/07/12 11:57:46;;;;;;;2.22;2.08;;;25.50;99.90;;;;;;5088738;28;20194;-80
2023/07/12 12:00:18;;;;;;;3.00;2.03;;;25.60;99.90;;;;;;5086038;28;20586;-79
2023/07/12 12:02:53;;;;;;;3.13;2.13;;;26.10;99.90;;;;;;5081216;28;20232;-81
2023/07/12 12:05:25;;;;;;;2.55;2.28;;;26.20;99.90;;;;;;5092102;28;20204;-80
2023/07/12 12:07:55;;;;;;;4.00;2.17;;;25.60;98.70;;;;;;5085211;28;20428;-81
2023/07/12 12:10:23;;;;;;;2.50;1.92;;;25.90;99.90;;;;;;5085794;28;20211;-80
2023/07/12 12:12:51;;;;;;;2.00;1.85;;;25.60;96.50;;;;;;5093245;28;20225;-80
2023/07/12 12:15:19;;;;;;;2.88;1.65;;;25.90;92.90;;;;;;5085649;28;20204;-82
2023/07/12 12:17:46;;;;;;;3.38;2.00;;;25.90;67.80;;;;;;5096825;28;20274;-80
2023/07/12 12:20:16;;;;;;;2.03;1.80;;;26.10;63.50;;;;;;5084950;28;20571;-79
2023/07/12 12:22:44;;;;;;;5.47;1.63;;;26.10;69.60;;;;;;5088533;28;20271;-78
2023/07/12 12:25:20;;;;;;;2.65;1.80;;;26.20;62.30;;;;;;5088584;28;20577;-79
2023/07/12 12:27:48;;;;;;;2.55;1.65;;;25.90;42.30;;;;;;5087763;28;20201;-80
2023/07/12 12:30:21;;;;;;;4.13;2.30;;;26.10;68.50;;;;;;5086706;28;20224;-78
2023/07/12 12:33:04;;;;;;;1.70;1.52;;;26.10;52.00;;;;;;5088837;28;20668;-80
2023/07/12 12:35:32;;;;;;;2.80;1.75;;;25.70;19.70;;;;;;5088904;28;20205;-82
2023/07/12 12:38:04;;;;;;;2.00;1.60;;;25.60;18.60;;;;;;5081894;28;20709;-81
2023/07/12 12:40:35;;;;;;;1.67;1.30;;;25.20;11.80;;;;;;5087922;28;20206;-81
2023/07/12 12:43:05;;;;;;;3.85;1.60;;;25.50;12.40;;;;;;5088614;28;20231;-81
2023/07/12 12:45:34;;;;;;;2.75;2.10;;;25.70;19.70;;;;;;5085981;28;20213;-80
2023/07/12 12:48:04;;;;;;;3.58;1.77;;;26.20;20.80;;;;;;5078868;28;20285;-81
2023/07/12 12:50:31;;;;;;;4.28;1.58;;;26.40;42.70;;;;;;5093218;28;20210;-81
2023/07/12 12:53:01;;;;;;;2.72;1.75;;;27.00;25.00;;;;;;5082109;28;20214;-79
2023/07/12 12:55:29;;;;;;;1.90;1.63;;;26.50;1.00;;;;;;5089884;28;20194;-80